• Join FlightAware (Why Join?)
  • Login
  • US Flag 
04:19AM EDT


 

Airport Tracker/Info


-or-


 

Live Flight TrackerFlight Track Log ✈ ASA731 ✈ 07-May-2013 ✈ KSEA - PANC

Flight Track Log - Related Links

Times and Time Zones

All times are in EDT time to prevent confusion due to time zone crossing. See the ASA731 flight status page for this flight to view local times or setup timezone preferences in your user account.

Time Position Orientation Groundspeed Altitude Reporting Facility
EDT Latitude Longitude Course Direction KTS MPH feet Rate Location/Type
12:47AM 47.4219 -122.3111 181° South 178 205 1,300  Level Seattle Center
12:47AM 47.4022 -122.3117 181° South 184 212 1,800 1,620 Climbing Seattle Center
12:48AM 47.3347 -122.3194 184° South 229 264 3,700 1,800 Climbing Seattle Center
12:49AM 47.3100 -122.4175 250° West 269 310 5,500 1,740 Climbing Seattle Center
12:50AM 47.3386 -122.5181 293° West 269 310 7,300 1,980 Climbing Seattle Center
12:51AM 47.3989 -122.5964 319° Northwest 288 331 9,600 1,800 Climbing Seattle Center
12:52AM 47.4631 -122.6808 318° Northwest 306 352 11,000 1,500 Climbing Seattle Center
12:53AM 47.5386 -122.7783 319° Northwest 356 410 12,700 1,920 Climbing Seattle Center
12:54AM 47.6197 -122.8828 319° Northwest 379 436 14,900 2,280 Climbing Seattle Center
12:55AM 47.6886 -123.0072 309° West 393 452 17,300 2,220 Climbing Seattle Center
12:56AM 47.7781 -123.1047 324° Northwest 398 458 19,500 2,040 Climbing Seattle Center
12:57AM 47.8681 -123.2003 325° Northwest 401 461 21,500 1,860 Climbing Seattle Center
12:58AM 47.9606 -123.2978 325° Northwest 407 468 23,300 1,560 Climbing Seattle Center
12:59AM 48.0500 -123.3908 325° Northwest 412 474 24,700 1,380 Climbing Seattle Center
01:00AM 48.1472 -123.4933 325° Northwest 423 487 26,100 1,320 Climbing Seattle Center
01:03AM 48.3833 -123.7500 324° Northwest 440 506 29,300 1,200 Climbing Vancouver Center
01:04AM 48.4833 -123.8833 319° Northwest 450 518 30,400 1,200 Climbing Vancouver Center
01:05AM 48.5833 -123.9833 327° Northwest 440 506 31,800 1,200 Climbing Vancouver Center
01:06AM 48.6833 -124.0833 327° Northwest 440 506 32,900 960 Climbing Vancouver Center
01:07AM 48.7667 -124.2000 317° Northwest 440 506 33,800 540 Climbing Vancouver Center
01:08AM 48.8833 -124.3000 331° Northwest 440 506 34,000 60 Climbing Vancouver Center
01:09AM 48.9833 -124.4167 323° Northwest 440 506 34,000  Level Vancouver Center
01:10AM 49.0833 -124.5333 323° Northwest 440 506 34,000  Level Vancouver Center
01:11AM 49.1833 -124.6500 323° Northwest 440 506 34,000  Level Vancouver Center
01:12AM 49.2667 -124.7500 322° Northwest 440 506 34,000  Level Vancouver Center
01:13AM 49.3667 -124.8833 319° Northwest 430 495 34,000  Level Vancouver Center
01:14AM 49.4667 -124.9833 327° Northwest 430 495 34,000  Level Vancouver Center
01:15AM 49.5667 -125.0833 327° Northwest 430 495 34,000  Level Vancouver Center
01:16AM 49.6667 -125.2000 323° Northwest 430 495 34,000  Level Vancouver Center
01:17AM 49.7667 -125.3000 327° Northwest 430 495 34,000  Level Vancouver Center
01:18AM 49.8500 -125.4333 314° West 430 495 34,000  Level Vancouver Center
01:19AM 49.9500 -125.5333 327° Northwest 420 483 34,000  Level Vancouver Center
01:20AM 50.0500 -125.6500 323° Northwest 430 495 34,000  Level Vancouver Center
01:21AM 50.1167 -125.7500 316° Northwest 430 495 34,000  Level Vancouver Center
01:22AM 50.2167 -125.8667 323° Northwest 430 495 34,000  Level Vancouver Center
01:23AM 50.3167 -125.9667 327° Northwest 430 495 34,000  Level Vancouver Center
01:24AM 50.4167 -126.0833 323° Northwest 430 495 34,000  Level Vancouver Center
01:25AM 50.5167 -126.1833 328° Northwest 430 495 34,000  Level Vancouver Center
01:26AM 50.6000 -126.3167 315° West 420 483 34,000  Level Vancouver Center
01:27AM 50.7000 -126.4333 324° Northwest 420 483 34,000  Level Vancouver Center
01:28AM 50.8000 -126.5500 324° Northwest 420 483 34,000  Level Vancouver Center
01:29AM 50.8833 -126.6500 323° Northwest 420 483 34,000  Level Vancouver Center
01:30AM 50.9667 -126.7667 319° Northwest 420 483 34,000  Level Vancouver Center
01:31AM 51.0667 -126.8833 324° Northwest 420 483 34,000  Level Vancouver Center
01:32AM 51.1667 -127.0000 324° Northwest 420 483 34,000  Level Vancouver Center
01:33AM 51.2500 -127.1000 323° Northwest 420 483 34,000  Level Vancouver Center
01:34AM 51.3500 -127.2500 317° Northwest 420 483 34,000  Level Vancouver Center
01:35AM 51.4333 -127.3667 319° Northwest 430 495 34,000  Level Vancouver Center
01:36AM 51.5333 -127.4833 324° Northwest 420 483 34,000  Level Vancouver Center
01:37AM 51.6167 -127.5833 323° Northwest 420 483 34,000  Level Vancouver Center
01:38AM 51.7167 -127.7000 324° Northwest 420 483 34,000  Level Vancouver Center
01:39AM 51.8167 -127.8167 324° Northwest 420 483 34,000  Level Vancouver Center
01:40AM 51.8833 -127.9333 313° West 430 495 34,000  Level Vancouver Center
01:41AM 51.9833 -128.0500 324° Northwest 430 495 34,000  Level Vancouver Center
01:42AM 52.0833 -128.1667 324° Northwest 430 495 34,000  Level Vancouver Center
01:43AM 52.1833 -128.3167 317° Northwest 430 495 34,000  Level Vancouver Center
01:44AM 52.2667 -128.4333 319° Northwest 430 495 34,000  Level Vancouver Center
01:45AM 52.3667 -128.5500 325° Northwest 430 495 34,000  Level Vancouver Center
01:46AM 52.4500 -128.6833 316° Northwest 430 495 34,000  Level Vancouver Center
01:47AM 52.5333 -128.8000 320° Northwest 430 495 34,000  Level Vancouver Center
01:48AM 52.6333 -128.9167 325° Northwest 430 495 34,000  Level Vancouver Center
01:49AM 52.7333 -129.0667 318° Northwest 430 495 34,000  Level Vancouver Center
01:50AM 52.8167 -129.1833 320° Northwest 430 495 34,000  Level Vancouver Center
01:51AM 52.9000 -129.3000 320° Northwest 430 495 34,000  Level Vancouver Center
01:52AM 53.0000 -129.4333 321° Northwest 430 495 34,000  Level Vancouver Center
01:53AM 53.1000 -129.5500 325° Northwest 430 495 34,000  Level Vancouver Center
01:54AM 53.1833 -129.6833 316° Northwest 430 495 34,000  Level Vancouver Center
01:55AM 53.2833 -129.8333 318° Northwest 420 483 34,000  Level Vancouver Center
01:56AM 53.3500 -129.9500 314° West 420 483 34,000  Level Vancouver Center
01:57AM 53.4500 -130.0833 322° Northwest 420 483 34,000  Level Vancouver Center
01:58AM 53.5333 -130.2000 320° Northwest 420 483 34,000  Level Vancouver Center
01:59AM 53.6167 -130.3333 317° Northwest 420 483 34,000  Level Vancouver Center
02:00AM 53.7167 -130.4500 325° Northwest 420 483 34,000  Level Vancouver Center
02:01AM 53.8167 -130.5833 322° Northwest 420 483 34,000  Level Vancouver Center
02:02AM 53.8833 -130.7167 310° West 420 483 34,000  Level Vancouver Center
02:03AM 53.9833 -130.8667 319° Northwest 420 483 34,000  Level Vancouver Center
02:04AM 54.0667 -131.0000 317° Northwest 420 483 34,000  Level Vancouver Center
02:05AM 54.1667 -131.1333 322° Northwest 420 483 34,000  Level Vancouver Center
02:06AM 54.2333 -131.2500 314° West 420 483 34,000  Level Vancouver Center
02:07AM 54.3167 -131.3833 317° Northwest 420 483 34,000  Level Vancouver Center
02:08AM 54.4000 -131.5167 317° Northwest 420 483 34,000  Level Vancouver Center
02:09AM 54.5000 -131.6500 322° Northwest 420 483 34,000  Level Vancouver Center
02:10AM 54.5833 -131.7833 317° Northwest 420 483 34,000  Level Vancouver Center
02:11AM 54.6667 -131.9167 317° Northwest 420 483 34,000  Level Vancouver Center
02:12AM 54.7500 -132.0500 317° Northwest 420 483 34,000  Level Vancouver Center
02:13AM 54.8500 -132.1833 323° Northwest 420 483 34,000  Level Vancouver Center
02:14AM 54.9333 -132.2833 325° Northwest 420 483 34,000  Level Anchorage Center
02:15AM 55.0333 -132.4333 319° Northwest 410 472 34,000  Level Anchorage Center
02:16AM 55.1000 -132.5500 315° West 410 472 34,000  Level Anchorage Center
02:17AM 55.2000 -132.7000 319° Northwest 410 472 34,000  Level Anchorage Center
02:18AM 55.2833 -132.8333 318° Northwest 420 483 34,000  Level Anchorage Center
02:19AM 55.3500 -132.9500 315° West 410 472 34,000  Level Anchorage Center
02:20AM 55.4333 -133.1000 314° West 420 483 34,000  Level Anchorage Center
02:21AM 55.5167 -133.2333 318° Northwest 420 483 34,000  Level Anchorage Center
02:22AM 55.6000 -133.3667 318° Northwest 420 483 34,000  Level Anchorage Center
02:23AM 55.7000 -133.5167 320° Northwest 420 483 34,000  Level Anchorage Center
02:24AM 55.7833 -133.6667 315° West 430 495 34,000  Level Anchorage Center
02:25AM 55.8667 -133.8000 318° Northwest 430 495 34,000  Level Anchorage Center
02:26AM 55.9500 -133.9500 315° West 430 495 34,000  Level Anchorage Center
02:27AM 56.0333 -134.1000 315° West 430 495 34,000  Level Anchorage Center
02:28AM 56.1167 -134.2500 315° West 440 506 34,000  Level Anchorage Center
02:29AM 56.2167 -134.4000 320° Northwest 430 495 34,000  Level Anchorage Center
02:30AM 56.3000 -134.5500 315° West 430 495 34,000  Level Anchorage Center
02:31AM 56.3833 -134.7000 315° West 440 506 34,000  Level Anchorage Center
02:32AM 56.4667 -134.8500 315° West 430 495 34,000  Level Anchorage Center
02:33AM 56.5500 -135.0000 315° West 430 495 34,000  Level Anchorage Center
02:34AM 56.6333 -135.1667 312° West 430 495 34,000  Level Anchorage Center
02:35AM 56.7333 -135.3167 321° Northwest 430 495 34,000  Level Anchorage Center
02:36AM 56.8000 -135.4500 312° West 440 506 34,000  Level Anchorage Center
02:37AM 56.8833 -135.6167 313° West 420 483 34,000  Level Anchorage Center
02:38AM 56.9667 -135.7833 313° West 420 483 34,000  Level Anchorage Center
02:39AM 57.0333 -135.9667 304° West 430 495 34,000  Level Anchorage Center
02:40AM 57.1000 -136.1333 306° West 430 495 34,000  Level Anchorage Center
02:41AM 57.1833 -136.3167 310° West 430 495 34,000  Level Anchorage Center
02:42AM 57.2500 -136.4833 307° West 430 495 34,000  Level Anchorage Center
02:42AM 57.2833 -136.6333 292° West 430 495 34,000  Level Vancouver Center
02:43AM 57.3500 -136.8167 304° West 430 495 34,000  Level Vancouver Center
02:44AM 57.4000 -136.8333 350° North 430 495 34,000  Level Anchorage Center
02:45AM 57.4667 -137.0167 304° West 430 495 34,000  Level Anchorage Center
02:46AM 57.5333 -137.1833 307° West 420 483 34,000  Level Anchorage Center
02:47AM 57.6167 -137.3667 310° West 420 483 34,000  Level Anchorage Center
02:48AM 57.6833 -137.5333 307° West 430 495 34,000  Level Anchorage Center
02:49AM 57.7500 -137.7167 304° West 420 483 34,000  Level Anchorage Center
02:50AM 57.8167 -137.9000 304° West 430 495 34,000  Level Anchorage Center
02:51AM 57.9000 -138.0667 313° West 420 483 34,000  Level Anchorage Center
02:52AM 57.9667 -138.2500 304° West 420 483 34,000  Level Anchorage Center
02:53AM 58.0333 -138.4333 305° West 420 483 34,000  Level Anchorage Center
02:54AM 58.1000 -138.6167 305° West 420 483 34,000  Level Anchorage Center
02:55AM 58.1667 -138.7833 307° West 410 472 34,000  Level Anchorage Center
02:56AM 58.2333 -138.9667 305° West 420 483 34,000  Level Anchorage Center
02:57AM 58.3000 -139.1500 305° West 410 472 34,000  Level Anchorage Center
02:58AM 58.3667 -139.3333 305° West 410 472 34,000  Level Anchorage Center
02:59AM 58.4333 -139.5167 305° West 420 483 34,000  Level Anchorage Center
03:00AM 58.5000 -139.7000 305° West 410 472 34,000  Level Anchorage Center
03:01AM 58.5667 -139.8833 305° West 420 483 34,000  Level Anchorage Center
03:02AM 58.6333 -140.0667 305° West 420 483 34,000  Level Anchorage Center
03:03AM 58.7000 -140.2500 305° West 420 483 34,000  Level Anchorage Center
03:04AM 58.7667 -140.4333 305° West 410 472 34,000  Level Anchorage Center
03:05AM 58.8333 -140.6167 305° West 410 472 34,000  Level Anchorage Center
03:06AM 58.8833 -140.8167 296° West 410 472 34,000  Level Anchorage Center
03:07AM 58.9500 -141.0000 305° West 410 472 34,000  Level Anchorage Center
03:08AM 59.0000 -141.1833 298° West 410 472 34,000  Level Anchorage Center
03:09AM 59.0667 -141.3833 303° West 410 472 34,000  Level Anchorage Center
03:10AM 59.1167 -141.5667 298° West 400 460 34,000  Level Anchorage Center
03:11AM 59.1667 -141.7667 296° West 410 472 34,000  Level Anchorage Center
03:12AM 59.2333 -141.9500 305° West 400 460 34,000  Level Anchorage Center
03:13AM 59.2833 -142.1500 296° West 410 472 34,000  Level Anchorage Center
03:14AM 59.3333 -142.3500 296° West 400 460 34,000  Level Anchorage Center
03:15AM 59.3833 -142.5500 296° West 410 472 34,000  Level Anchorage Center
03:16AM 59.4333 -142.7500 296° West 410 472 34,000  Level Anchorage Center
03:17AM 59.5000 -142.9500 303° West 410 472 34,000  Level Anchorage Center
03:18AM 59.5500 -143.1667 295° West 420 483 34,000  Level Anchorage Center
03:19AM 59.6000 -143.3667 296° West 400 460 34,000  Level Anchorage Center
03:20AM 59.6500 -143.5667 296° West 410 472 34,000  Level Anchorage Center
03:21AM 59.7000 -143.7667 296° West 410 472 34,000  Level Anchorage Center
03:22AM 59.7500 -143.9667 296° West 400 460 34,000  Level Anchorage Center
03:23AM 59.8000 -144.1667 296° West 410 472 34,000  Level Anchorage Center
03:24AM 59.8500 -144.3833 295° West 400 460 34,000  Level Anchorage Center
03:25AM 59.9000 -144.5833 297° West 410 472 34,000  Level Anchorage Center
03:26AM 59.9500 -144.7833 297° West 410 472 34,000  Level Anchorage Center
03:27AM 60.0000 -145.0000 295° West 410 472 34,000  Level Anchorage Center
03:28AM 60.0333 -145.2000 289° West 420 483 34,000  Level Anchorage Center
03:29AM 60.0833 -145.4167 295° West 420 483 34,000  Level Anchorage Center
03:30AM 60.1333 -145.6333 295° West 420 483 34,000  Level Anchorage Center
03:31AM 60.1833 -145.8500 295° West 420 483 34,000  Level Anchorage Center
03:32AM 60.2333 -146.0667 295° West 420 483 34,000  Level Anchorage Center
03:33AM 60.2833 -146.2667 297° West 410 472 34,000  Level Anchorage Center
03:34AM 60.3333 -146.4833 295° West 410 472 34,000  Level Anchorage Center
03:35AM 60.3667 -146.7000 287° West 410 472 34,000  Level Anchorage Center
03:36AM 60.4167 -146.9000 297° West 410 472 34,000  Level Anchorage Center
03:37AM 60.4667 -147.1167 295° West 410 472 34,000  Level Anchorage Center
03:38AM 60.5000 -147.3333 287° West 410 472 34,000 -840 Level Anchorage Center
03:39AM 60.5500 -147.5667 294° West 410 472 32,400 -1,860 Descending Anchorage Center
03:40AM 60.6000 -147.7667 297° West 390 449 30,300 -2,160 Descending Anchorage Center
03:41AM 60.6333 -147.9667 289° West 370 426 28,100 -2,040 Descending Anchorage Center
03:42AM 60.6667 -148.1333 292° West 350 403 26,300 -1,860 Descending Anchorage Center
03:43AM 60.7000 -148.3167 290° West 350 403 24,400 -2,040 Descending Anchorage Center
03:44AM 60.7500 -148.5167 297° West 340 391 22,300 -2,040 Descending Anchorage Center
03:45AM 60.7833 -148.6833 292° West 320 368 20,400 -1,920 Descending Anchorage Center
03:47AM 60.8454 -149.0299 290° West  Level FlightAware Approximate
03:54AM 61.1741 -149.9982 65° Northeast  Level Estimated
03:55AM 61.1741 -149.9982 65° Northeast  Level Estimated
03:56AM 61.1741 -149.9982 65° Northeast  Level Estimated
03:57AM 61.1741 -149.9982 65° Northeast  Level Estimated
03:58AM 61.1741 -149.9982 65° Northeast  Level Estimated
03:59AM 61.1741 -149.9982 65° Northeast  Level Estimated
04:00AM 61.1741 -149.9982 65° Northeast  Level Estimated
04:01AM 61.1741 -149.9982 65° Northeast  Level Estimated
04:02AM 61.1741 -149.9982 65° Northeast  Level Estimated
04:03AM 61.1741 -149.9982 65° Northeast  Level Estimated
04:04AM 61.1741 -149.9982 65° Northeast  Level Estimated
04:05AM 61.1741 -149.9982 65° Northeast  Level Estimated
04:06AM 61.1741 -149.9982 65° Northeast  Level Estimated
04:07AM 61.1741 -149.9982 65° Northeast  Level Estimated
04:08AM 61.1741 -149.9982 65° Northeast  Level Estimated
04:09AM 61.1741 -149.9982 65° Northeast  Level Estimated
04:10AM 61.1741 -149.9982 65° Northeast  Level Estimated
04:11AM 61.1741 -149.9982 65° Northeast  Level Estimated